Time;durP1;ratioP1;P1;durP2;ratioP2;P2;SDS_P1;SDS_P2;PMS_P1;PMS_P2;Temp;Humidity;BMP_temperature;BMP_pressure;BME280_temperature;BME280_humidity;BME280_pressure;Samples;Min_cycle;Max_cycle;Signal;HPM_P1;HPM_P2
2023/03/19 00:00:29;;;;;;;;;;;11.20;99.90;;;;;;5054897;28;20029;-76
2023/03/19 00:02:55;;;;;;;12.88;7.53;;;11.20;99.90;;;;;;5036992;28;19944;-77
2023/03/19 00:05:22;;;;;;;17.67;8.43;;;11.20;99.90;;;;;;5054664;28;20021;-77
2023/03/19 00:07:48;;;;;;;16.73;7.47;;;11.20;99.90;;;;;;5054483;28;20267;-78
2023/03/19 00:10:14;;;;;;;13.00;8.57;;;11.20;99.90;;;;;;5054185;28;20047;-78
2023/03/19 00:12:40;;;;;;;15.27;8.13;;;11.20;99.90;;;;;;5054315;28;20031;-78
2023/03/19 00:15:12;;;;;;;12.18;7.68;;;11.00;99.90;;;;;;5054314;28;20033;-78
2023/03/19 00:17:40;;;;;;;14.45;7.88;;;11.00;99.90;;;;;;5036260;28;20036;-77
2023/03/19 00:20:09;;;;;;;22.73;8.50;;;11.00;99.90;;;;;;5054326;28;20021;-77
2023/03/19 00:22:36;;;;;;;16.58;8.18;;;10.90;99.90;;;;;;5036247;28;20061;-78
2023/03/19 00:25:02;;;;;;;;;;;10.90;99.90;;;;;;5054627;28;20017;-78
2023/03/19 00:27:28;;;;;;;24.45;8.15;;;10.80;99.90;;;;;;5053993;28;20273;-78
2023/03/19 00:29:54;;;;;;;12.02;7.72;;;10.80;99.90;;;;;;5054304;28;20037;-77
2023/03/19 00:32:20;;;;;;;14.33;6.87;;;10.80;99.90;;;;;;5054358;28;20049;-78
2023/03/19 00:34:47;;;;;;;14.07;8.02;;;10.80;99.90;;;;;;5053787;28;20280;-78
2023/03/19 00:37:15;;;;;;;13.60;7.80;;;10.80;99.90;;;;;;5054443;28;20025;-79
2023/03/19 00:39:41;;;;;;;12.27;7.50;;;10.80;99.90;;;;;;5054018;28;20029;-78
2023/03/19 00:42:07;;;;;;;14.93;7.20;;;10.80;99.90;;;;;;5054048;28;20385;-79
2023/03/19 00:44:33;;;;;;;15.48;7.55;;;10.80;99.90;;;;;;5035982;28;20496;-78
2023/03/19 00:47:00;;;;;;;15.10;7.65;;;10.70;99.90;;;;;;5054415;28;20020;-78
2023/03/19 00:49:27;;;;;;;14.73;7.25;;;10.70;99.90;;;;;;5053837;28;20037;-78
2023/03/19 00:51:54;;;;;;;14.00;6.95;;;10.80;99.90;;;;;;5053372;28;20029;-78
2023/03/19 00:54:22;;;;;;;15.05;7.25;;;10.70;99.90;;;;;;5035466;28;20106;-78
2023/03/19 00:56:49;;;;;;;13.35;6.95;;;10.70;99.90;;;;;;5053908;28;20017;-79
2023/03/19 00:59:15;;;;;;;14.45;6.35;;;10.60;99.90;;;;;;5053851;28;20024;-78
2023/03/19 01:01:41;;;;;;;15.38;7.03;;;10.60;99.90;;;;;;5053798;28;20129;-78
2023/03/19 01:04:07;;;;;;;15.30;6.13;;;10.60;99.90;;;;;;5053737;28;20374;-78
2023/03/19 01:06:34;;;;;;;10.77;5.70;;;10.60;99.90;;;;;;5053655;28;20025;-78
2023/03/19 01:09:03;;;;;;;13.15;5.80;;;10.60;99.90;;;;;;5039004;28;20037;-77
2023/03/19 01:11:33;;;;;;;;;;;10.60;99.90;;;;;;5034022;28;20450;-78
2023/03/19 01:14:01;;;;;;;11.98;5.60;;;10.50;99.90;;;;;;5033703;28;19950;-79
2023/03/19 01:16:27;;;;;;;12.18;6.15;;;10.40;99.90;;;;;;5033761;28;20021;-78
2023/03/19 01:18:53;;;;;;;17.25;6.95;;;10.40;99.90;;;;;;5033449;28;20029;-74
2023/03/19 01:21:20;;;;;;;12.07;6.72;;;10.40;99.90;;;;;;5033510;28;20021;-79
2023/03/19 01:23:47;;;;;;;12.68;6.40;;;10.50;99.90;;;;;;5016227;28;20040;-79
2023/03/19 01:26:14;;;;;;;12.63;6.60;;;10.40;99.90;;;;;;5032787;28;20036;-78
2023/03/19 01:28:42;;;;;;;14.67;7.60;;;10.50;99.90;;;;;;5015264;28;20390;-79
2023/03/19 01:31:08;;;;;;;16.90;7.20;;;10.50;99.90;;;;;;5033385;28;20076;-79
2023/03/19 01:33:36;;;;;;;16.58;6.97;;;10.40;99.90;;;;;;5015259;28;20057;-79
2023/03/19 01:36:04;;;;;;;12.68;6.68;;;10.40;99.90;;;;;;5033408;28;20128;-78
2023/03/19 01:38:31;;;;;;;15.15;7.13;;;10.40;99.90;;;;;;5043192;28;20083;-78
2023/03/19 01:40:57;;;;;;;13.57;7.63;;;10.30;99.90;;;;;;5053084;28;20025;-78
2023/03/19 01:43:25;;;;;;;18.53;7.03;;;10.30;99.90;;;;;;5052925;28;20067;-78
2023/03/19 01:46:07;;;;;;;13.93;7.28;;;10.20;99.90;;;;;;5053126;28;20025;-79
2023/03/19 01:48:39;;;;;;;12.57;7.30;;;10.30;99.90;;;;;;5052947;28;20107;-78
2023/03/19 01:51:09;;;;;;;13.52;6.80;;;10.20;99.90;;;;;;5052604;28;20039;-78
2023/03/19 01:53:36;;;;;;;16.08;7.00;;;10.20;99.90;;;;;;5052666;28;20522;-79
2023/03/19 01:56:16;;;;;;;13.38;6.53;;;10.20;99.90;;;;;;5052574;28;20048;-77
2023/03/19 01:58:45;;;;;;;12.45;6.25;;;10.30;99.90;;;;;;5052516;28;20457;-77
2023/03/19 02:01:11;;;;;;;12.25;5.93;;;10.30;99.90;;;;;;5052781;28;20028;-78
2023/03/19 02:03:39;;;;;;;11.57;6.28;;;10.30;99.90;;;;;;5034342;28;20389;-78
2023/03/19 02:06:05;;;;;;;16.45;7.20;;;10.30;99.90;;;;;;5052359;28;20032;-78
2023/03/19 02:08:32;;;;;;;11.95;6.30;;;10.40;99.90;;;;;;5052410;28;20032;-78
2023/03/19 02:11:00;;;;;;;12.68;5.97;;;10.40;99.90;;;;;;5034900;28;20079;-78
2023/03/19 02:13:28;;;;;;;11.20;6.20;;;10.30;99.90;;;;;;5052091;28;20025;-79
2023/03/19 02:15:56;;;;;;;12.95;6.88;;;10.20;99.90;;;;;;5052379;28;20104;-79
2023/03/19 02:18:24;;;;;;;9.07;5.25;;;10.10;99.90;;;;;;5052137;28;20496;-78
2023/03/19 02:20:57;;;;;;;13.48;6.68;;;10.00;99.90;;;;;;5052073;28;20033;-78
2023/03/19 02:23:41;;;;;;;13.65;7.30;;;10.00;99.90;;;;;;5035004;28;20044;-78
2023/03/19 02:26:19;;;;;;;16.02;7.25;;;9.90;99.90;;;;;;5052394;28;20028;-77
2023/03/19 02:28:47;;;;;;;12.35;6.97;;;9.80;99.90;;;;;;5051739;28;20037;-78
2023/03/19 02:31:15;;;;;;;14.50;7.22;;;9.90;99.90;;;;;;5052202;28;20029;-74
2023/03/19 02:33:42;;;;;;;18.30;7.28;;;9.90;99.90;;;;;;5051540;28;20393;-77
2023/03/19 02:36:14;;;;;;;12.20;7.00;;;10.00;99.90;;;;;;5051794;28;20021;-79
2023/03/19 02:38:44;;;;;;;13.82;7.20;;;10.00;99.90;;;;;;5051910;28;20523;-79
2023/03/19 02:41:10;;;;;;;14.30;6.63;;;10.00;99.90;;;;;;5033800;28;20071;-79
2023/03/19 02:43:38;;;;;;;;;;;10.00;99.90;;;;;;5051994;28;20032;-78
2023/03/19 02:46:09;;;;;;;15.55;6.60;;;9.80;99.90;;;;;;5054113;28;19958;-78
2023/03/19 02:48:36;;;;;;;16.70;6.75;;;9.70;99.90;;;;;;5051918;28;20078;-79
2023/03/19 02:51:03;;;;;;;11.48;6.22;;;9.70;99.90;;;;;;5051490;28;20033;-77
2023/03/19 02:53:29;;;;;;;10.88;6.65;;;9.60;99.90;;;;;;5051578;28;20349;-77
2023/03/19 02:55:55;;;;;;;13.13;7.07;;;9.60;99.90;;;;;;5051569;28;20107;-77
2023/03/19 02:58:21;;;;;;;10.63;6.23;;;9.50;99.90;;;;;;5033132;28;20523;-77
2023/03/19 03:00:47;;;;;;;12.95;6.72;;;9.50;99.90;;;;;;5051490;28;20025;-77
2023/03/19 03:03:13;;;;;;;10.98;6.47;;;9.50;99.90;;;;;;5051438;28;20029;-77
2023/03/19 03:05:40;;;;;;;14.88;7.13;;;9.60;99.90;;;;;;5051116;28;20071;-73
2023/03/19 03:08:06;;;;;;;14.30;7.20;;;9.60;99.90;;;;;;5050932;28;20116;-77
2023/03/19 03:10:32;;;;;;;11.52;7.07;;;9.70;99.90;;;;;;5033850;28;20041;-78
2023/03/19 03:12:59;;;;;;;11.25;5.78;;;9.60;99.90;;;;;;5051351;28;20025;-77
2023/03/19 03:15:26;;;;;;;15.18;7.30;;;9.60;99.90;;;;;;5050963;28;20028;-78
2023/03/19 03:17:52;;;;;;;10.27;5.85;;;9.70;99.90;;;;;;5033433;28;20104;-78
2023/03/19 03:20:19;;;;;;;13.65;6.20;;;9.80;99.90;;;;;;5051861;28;20071;-78
2023/03/19 03:22:47;;;;;;;10.48;5.95;;;9.80;99.90;;;;;;5051536;28;20362;-78
2023/03/19 03:25:13;;;;;;;11.57;5.80;;;9.80;99.90;;;;;;5052017;28;20033;-77
2023/03/19 03:27:40;;;;;;;9.88;5.72;;;9.80;99.90;;;;;;5051257;28;20116;-78
2023/03/19 03:30:07;;;;;;;10.18;6.63;;;9.70;99.90;;;;;;5033467;28;20532;-78
2023/03/19 03:32:35;;;;;;;12.45;6.80;;;9.70;99.90;;;;;;5051314;28;20029;-77
2023/03/19 03:35:02;;;;;;;11.65;5.95;;;9.70;99.90;;;;;;5029974;28;20050;-77
2023/03/19 03:37:29;;;;;;;14.55;6.47;;;9.70;99.90;;;;;;5031398;28;20386;-78
2023/03/19 03:39:55;;;;;;;11.90;5.65;;;9.60;99.90;;;;;;5031615;28;20021;-77
2023/03/19 03:42:21;;;;;;;15.57;6.63;;;9.60;99.90;;;;;;5031314;28;20061;-77
2023/03/19 03:44:47;;;;;;;11.07;6.35;;;9.70;99.90;;;;;;5031600;28;20108;-78
2023/03/19 03:47:13;;;;;;;13.25;6.93;;;9.70;99.90;;;;;;5031345;28;20113;-78
2023/03/19 03:49:40;;;;;;;12.87;6.60;;;9.70;99.90;;;;;;5031219;28;20458;-77
2023/03/19 03:52:07;;;;;;;12.82;6.63;;;9.70;99.90;;;;;;5031571;28;20025;-77
2023/03/19 03:54:34;;;;;;;14.98;6.47;;;9.70;99.90;;;;;;5031127;28;20041;-77
2023/03/19 03:57:01;;;;;;;11.70;6.60;;;9.70;99.90;;;;;;5031112;28;20123;-77
2023/03/19 03:59:28;;;;;;;11.65;6.18;;;9.70;99.90;;;;;;5031053;28;20049;-78
2023/03/19 04:01:55;;;;;;;14.83;7.20;;;9.70;99.90;;;;;;5031314;28;20113;-77
2023/03/19 04:04:22;;;;;;;14.20;7.43;;;9.60;99.90;;;;;;5031034;28;20041;-76
2023/03/19 04:06:48;;;;;;;15.18;7.28;;;9.60;99.90;;;;;;5031045;28;20099;-77
2023/03/19 04:09:16;;;;;;;14.05;7.70;;;9.60;99.90;;;;;;5031137;28;20070;-78
2023/03/19 04:11:42;;;;;;;14.65;8.43;;;9.50;99.90;;;;;;5031334;28;20381;-78
2023/03/19 04:14:08;;;;;;;14.50;7.75;;;9.60;99.90;;;;;;5030846;28;20488;-77
2023/03/19 04:16:34;;;;;;;13.73;7.32;;;9.60;99.90;;;;;;5031371;28;20021;-77
2023/03/19 04:19:01;;;;;;;13.25;7.57;;;9.60;99.90;;;;;;5031366;28;20026;-77
2023/03/19 04:21:28;;;;;;;21.52;7.97;;;9.60;99.90;;;;;;5031356;28;20025;-77
2023/03/19 04:23:55;;;;;;;18.23;8.15;;;9.60;99.90;;;;;;5030939;28;20029;-77
2023/03/19 04:26:22;;;;;;;11.35;6.90;;;9.70;99.90;;;;;;5031128;28;20048;-78
2023/03/19 04:28:48;;;;;;;12.70;7.32;;;9.70;99.90;;;;;;5031783;28;20116;-77
2023/03/19 04:31:14;;;;;;;13.48;7.45;;;9.70;99.90;;;;;;5034741;28;20022;-77
2023/03/19 04:33:40;;;;;;;16.02;7.35;;;9.70;99.90;;;;;;5038458;28;20040;-78
2023/03/19 04:36:07;;;;;;;14.90;7.00;;;9.70;99.90;;;;;;5054382;28;20105;-77
2023/03/19 04:38:33;;;;;;;14.93;6.60;;;9.80;99.90;;;;;;5054236;28;20028;-77
2023/03/19 04:41:00;;;;;;;10.77;7.07;;;9.80;99.90;;;;;;5054723;28;20031;-77
2023/03/19 04:43:26;;;;;;;17.15;7.50;;;9.70;99.90;;;;;;5054227;28;20021;-78
2023/03/19 04:45:55;;;;;;;13.17;7.03;;;9.80;99.90;;;;;;5054126;28;20509;-77
2023/03/19 04:48:27;;;;;;;14.85;6.03;;;9.80;99.90;;;;;;5054348;28;20056;-77
2023/03/19 04:50:55;;;;;;;13.95;6.53;;;9.90;99.90;;;;;;5053971;28;20033;-77
2023/03/19 04:53:23;;;;;;;11.20;6.22;;;10.00;99.90;;;;;;5035962;28;20408;-74
2023/03/19 04:55:50;;;;;;;10.63;6.72;;;10.00;99.90;;;;;;5053923;28;20032;-77
2023/03/19 04:58:16;;;;;;;;;;;9.80;99.90;;;;;;5054274;28;20060;-78
2023/03/19 05:00:46;;;;;;;14.55;7.03;;;9.80;99.90;;;;;;5053520;28;20317;-77
2023/03/19 05:03:13;;;;;;;15.05;7.97;;;9.80;99.90;;;;;;5054232;28;20024;-78
2023/03/19 05:05:39;;;;;;;14.35;7.15;;;9.70;99.90;;;;;;5053992;28;20025;-77
2023/03/19 05:08:07;;;;;;;12.55;7.43;;;9.70;99.90;;;;;;5047045;28;20052;-77
2023/03/19 05:10:35;;;;;;;14.00;7.28;;;9.70;99.90;;;;;;5033647;28;20033;-77
2023/03/19 05:13:02;;;;;;;12.45;7.25;;;9.60;99.90;;;;;;5033867;28;20076;-78
2023/03/19 05:15:28;;;;;;;12.75;7.40;;;9.60;99.90;;;;;;5033986;28;20021;-77
2023/03/19 05:17:54;;;;;;;11.88;6.78;;;9.60;99.90;;;;;;5015636;28;20136;-77
2023/03/19 05:20:20;;;;;;;11.47;7.10;;;9.50;99.90;;;;;;5033506;28;20075;-77
2023/03/19 05:22:47;;;;;;;12.52;6.70;;;9.50;99.90;;;;;;5033676;28;20066;-77
2023/03/19 05:25:13;;;;;;;20.80;8.00;;;9.60;99.90;;;;;;5033465;28;20087;-77
2023/03/19 05:27:40;;;;;;;16.35;7.40;;;9.60;99.90;;;;;;5033169;28;20025;-78
2023/03/19 05:30:09;;;;;;;13.82;7.00;;;9.70;99.90;;;;;;5033729;28;20065;-77
2023/03/19 05:32:36;;;;;;;11.40;6.90;;;9.70;99.90;;;;;;5033784;28;20025;-78
2023/03/19 05:35:03;;;;;;;11.35;6.78;;;9.80;99.90;;;;;;4995845;28;20054;-77
2023/03/19 05:37:29;;;;;;;13.63;6.93;;;9.90;99.90;;;;;;5015539;28;20037;-78
2023/03/19 05:39:55;;;;;;;15.30;6.90;;;10.00;99.90;;;;;;5033885;28;20033;-77
2023/03/19 05:42:21;;;;;;;12.15;6.47;;;10.10;99.90;;;;;;5033120;28;20029;-77
2023/03/19 05:44:47;;;;;;;14.13;6.50;;;10.20;99.90;;;;;;5033211;28;20141;-77
2023/03/19 05:47:13;;;;;;;13.27;6.23;;;10.30;99.90;;;;;;5033462;28;20060;-78
2023/03/19 05:49:40;;;;;;;10.52;6.15;;;10.30;99.90;;;;;;5031619;28;20489;-78
2023/03/19 05:52:06;;;;;;;12.93;5.95;;;10.40;99.90;;;;;;5033231;28;20025;-77
2023/03/19 05:54:33;;;;;;;17.23;6.10;;;10.60;99.90;;;;;;5031673;28;20377;-77
2023/03/19 05:57:00;;;;;;;10.38;5.70;;;11.00;99.90;;;;;;5031699;28;20049;-77
2023/03/19 05:59:25;;;;;;;;;;;11.90;99.90;;;;;;5033954;28;20462;-78
2023/03/19 06:01:51;;;;;;;11.10;5.37;;;12.80;99.90;;;;;;5032947;28;20003;-77
2023/03/19 06:04:17;;;;;;;15.60;5.13;;;13.70;99.90;;;;;;5032918;28;20157;-78
2023/03/19 06:06:44;;;;;;;9.25;5.13;;;13.60;99.90;;;;;;5032624;28;20068;-73
2023/03/19 06:09:11;;;;;;;10.95;4.95;;;13.80;99.90;;;;;;5028163;28;20067;-77
2023/03/19 06:11:39;;;;;;;10.93;4.70;;;14.20;99.90;;;;;;5032796;28;20029;-77
2023/03/19 06:14:05;;;;;;;9.90;4.15;;;14.90;99.90;;;;;;5032538;28;20021;-77
2023/03/19 06:16:32;;;;;;;13.07;4.78;;;14.80;99.90;;;;;;5032885;28;20490;-78
2023/03/19 06:18:59;;;;;;;7.40;4.68;;;15.10;99.90;;;;;;5033010;28;20064;-78
2023/03/19 06:21:29;;;;;;;9.20;4.55;;;15.60;99.90;;;;;;5033064;28;20461;-77
2023/03/19 06:24:00;;;;;;;9.95;4.20;;;16.10;99.90;;;;;;5030560;28;20052;-72
2023/03/19 06:26:27;;;;;;;8.05;3.75;;;16.90;99.90;;;;;;5022502;28;20033;-79
2023/03/19 06:28:54;;;;;;;8.88;4.10;;;17.40;99.90;;;;;;5011233;28;20046;-78
2023/03/19 06:31:20;;;;;;;10.13;3.78;;;17.50;99.90;;;;;;5012928;28;20018;-77
2023/03/19 06:33:49;;;;;;;9.43;3.88;;;18.70;99.90;;;;;;5017264;28;20528;-78
2023/03/19 06:36:15;;;;;;;9.20;4.00;;;19.60;99.90;;;;;;4999173;28;20449;-78
2023/03/19 06:38:41;;;;;;;8.95;3.63;;;19.70;99.90;;;;;;5043732;28;20021;-78
2023/03/19 06:41:07;;;;;;;6.18;4.10;;;20.00;99.90;;;;;;5052164;28;20052;-79
2023/03/19 06:43:40;;;;;;;8.45;3.60;;;20.70;99.90;;;;;;5051984;28;20069;-78
2023/03/19 06:46:07;;;;;;;8.77;3.70;;;21.50;99.90;;;;;;5034147;28;20040;-78
2023/03/19 06:48:34;;;;;;;7.57;3.40;;;21.00;99.90;;;;;;5033440;28;20470;-77
2023/03/19 06:51:00;;;;;;;;;;;21.40;99.90;;;;;;5033497;28;20547;-78
2023/03/19 06:53:29;;;;;;;14.27;3.95;;;21.90;99.90;;;;;;5051580;28;19905;-78
2023/03/19 06:55:55;;;;;;;8.77;3.63;;;21.70;99.90;;;;;;5051000;28;20021;-77
2023/03/19 06:58:21;;;;;;;11.02;3.85;;;21.40;99.90;;;;;;5050287;28;20025;-78
2023/03/19 07:00:47;;;;;;;11.25;4.25;;;21.50;99.90;;;;;;5053656;28;20047;-77
2023/03/19 07:03:14;;;;;;;6.45;3.40;;;22.90;99.90;;;;;;5051689;28;20078;-79
2023/03/19 07:05:40;;;;;;;11.15;3.63;;;23.30;99.90;;;;;;5051753;28;20033;-77
2023/03/19 07:08:11;;;;;;;6.78;3.50;;;23.50;99.90;;;;;;5051962;28;20029;-76
2023/03/19 07:10:39;;;;;;;12.35;4.25;;;22.60;99.90;;;;;;5051590;28;20056;-77
2023/03/19 07:13:05;;;;;;;9.70;3.40;;;22.70;99.90;;;;;;5051386;28;20025;-76
2023/03/19 07:15:32;;;;;;;7.90;3.38;;;23.20;99.90;;;;;;5051874;28;20481;-76
2023/03/19 07:17:57;;;;;;;;;;;23.70;99.90;;;;;;5052342;28;20589;-77
2023/03/19 07:20:26;;;;;;;10.73;3.22;;;23.90;99.90;;;;;;5052021;28;20275;-79
2023/03/19 07:22:53;;;;;;;7.70;3.20;;;23.70;99.90;;;;;;5052324;28;20075;-78
2023/03/19 07:25:19;;;;;;;8.85;3.13;;;24.70;99.90;;;;;;5052359;28;20100;-79
2023/03/19 07:27:45;;;;;;;;;;;25.40;99.90;;;;;;5052013;28;20441;-76
2023/03/19 07:30:12;;;;;;;11.88;2.65;;;25.50;99.90;;;;;;5051940;28;19966;-79
2023/03/19 07:32:38;;;;;;;7.78;2.90;;;25.70;99.90;;;;;;5051603;28;20052;-79
2023/03/19 07:35:05;;;;;;;;;;;24.80;99.90;;;;;;5051933;28;20457;-80
2023/03/19 07:37:31;;;;;;;7.63;2.63;;;24.70;99.90;;;;;;5051958;28;19912;-79
2023/03/19 07:39:57;;;;;;;9.65;2.40;;;24.70;99.90;;;;;;5051784;28;20021;-79
2023/03/19 07:42:23;;;;;;;8.32;2.45;;;24.40;99.90;;;;;;5051135;28;20040;-80
2023/03/19 07:44:50;;;;;;;5.55;2.47;;;24.00;99.90;;;;;;5050991;28;20461;-79
2023/03/19 07:47:32;;;;;;;7.45;2.50;;;23.40;99.90;;;;;;5051159;28;20029;-79
2023/03/19 07:49:59;;;;;;;8.77;2.58;;;22.60;99.90;;;;;;5051482;28;20041;-78
2023/03/19 07:52:27;;;;;;;8.98;2.60;;;22.50;99.90;;;;;;5051683;28;20449;-79
2023/03/19 07:54:56;;;;;;;9.32;2.90;;;22.20;99.90;;;;;;5051554;28;20033;-77
2023/03/19 07:57:24;;;;;;;10.23;3.15;;;22.10;99.90;;;;;;5050928;28;20060;-77
2023/03/19 07:59:52;;;;;;;9.55;2.80;;;21.90;99.90;;;;;;5051526;28;20112;-72
2023/03/19 08:02:19;;;;;;;7.72;3.25;;;21.30;99.90;;;;;;5053141;28;20461;-78
2023/03/19 08:04:46;;;;;;;11.10;3.33;;;21.00;99.90;;;;;;5037906;28;20024;-77
2023/03/19 08:07:14;;;;;;;10.38;3.80;;;20.70;99.90;;;;;;5055455;28;20040;-77
2023/03/19 08:09:41;;;;;;;10.82;3.75;;;20.70;99.90;;;;;;5055153;28;20157;-78
2023/03/19 08:12:07;;;;;;;8.57;3.05;;;20.70;99.90;;;;;;5055262;28;20036;-78
2023/03/19 08:14:35;;;;;;;11.10;2.97;;;20.90;99.90;;;;;;5054683;28;20033;-77
2023/03/19 08:17:00;;;;;;;;;;;20.50;99.90;;;;;;5020880;28;20117;-78
2023/03/19 08:19:27;;;;;;;6.45;2.55;;;20.70;99.90;;;;;;5036618;28;19911;-76
2023/03/19 08:21:54;;;;;;;10.05;2.85;;;20.30;99.90;;;;;;5054708;28;20430;-79
2023/03/19 08:24:21;;;;;;;11.13;2.97;;;20.10;99.90;;;;;;5054851;28;20416;-78
2023/03/19 08:26:47;;;;;;;7.05;3.13;;;20.10;99.90;;;;;;5054771;28;20025;-79
2023/03/19 08:29:13;;;;;;;9.82;3.25;;;20.20;99.90;;;;;;5053698;28;20117;-78
2023/03/19 08:31:39;;;;;;;12.90;3.33;;;19.70;99.90;;;;;;5053769;28;20021;-77
2023/03/19 08:34:07;;;;;;;9.20;2.65;;;19.90;99.90;;;;;;5054138;28;20053;-77
2023/03/19 08:36:34;;;;;;;9.32;2.60;;;19.40;99.90;;;;;;5035693;28;20029;-77
2023/03/19 08:39:00;;;;;;;7.53;2.50;;;19.40;99.90;;;;;;5053850;28;20025;-77
2023/03/19 08:41:27;;;;;;;7.53;2.92;;;19.40;99.90;;;;;;5053911;28;20030;-77
2023/03/19 08:43:53;;;;;;;7.63;2.58;;;20.00;99.90;;;;;;5053959;28;20069;-76
2023/03/19 08:46:26;;;;;;;6.78;3.05;;;19.30;99.90;;;;;;5036019;28;20072;-77
2023/03/19 08:48:52;;;;;;;8.18;2.80;;;19.00;99.90;;;;;;5053770;28;20033;-76
2023/03/19 08:51:26;;;;;;;9.60;2.95;;;19.10;99.90;;;;;;5054269;28;20029;-78
2023/03/19 08:53:52;;;;;;;10.13;2.88;;;19.40;99.90;;;;;;5054340;28;20017;-77
2023/03/19 08:56:24;;;;;;;11.07;3.00;;;19.60;99.90;;;;;;5053679;28;20048;-77
2023/03/19 08:58:50;;;;;;;7.65;2.70;;;19.70;99.90;;;;;;5053414;28;20025;-77
2023/03/19 09:01:16;;;;;;;7.28;2.20;;;20.00;99.90;;;;;;5053890;28;20429;-77
2023/03/19 09:03:44;;;;;;;7.60;3.03;;;19.90;99.90;;;;;;5053851;28;20025;-77
2023/03/19 09:06:13;;;;;;;14.73;4.30;;;19.30;99.90;;;;;;5053917;28;20170;-77
2023/03/19 09:08:40;;;;;;;12.45;3.05;;;19.40;99.90;;;;;;5053395;28;20037;-76
2023/03/19 09:11:06;;;;;;;8.25;2.70;;;18.50;99.90;;;;;;5035310;28;20424;-76
2023/03/19 09:13:33;;;;;;;9.82;3.05;;;18.60;99.90;;;;;;5034591;28;20063;-75
2023/03/19 09:16:01;;;;;;;9.63;2.60;;;18.40;99.90;;;;;;5053058;28;20106;-76
2023/03/19 09:18:28;;;;;;;7.88;2.65;;;18.50;99.90;;;;;;5053266;28;20013;-76
2023/03/19 09:20:54;;;;;;;9.38;2.58;;;18.60;99.90;;;;;;5053194;28;20112;-76
2023/03/19 09:23:21;;;;;;;5.70;2.28;;;18.80;99.90;;;;;;5053010;28;20043;-76
2023/03/19 09:25:47;;;;;;;5.75;2.33;;;19.20;99.90;;;;;;5053276;28;20021;-76
2023/03/19 09:28:14;;;;;;;10.82;2.80;;;19.20;99.90;;;;;;5052853;28;20051;-75
2023/03/19 09:30:40;;;;;;;9.43;2.60;;;19.20;99.90;;;;;;5034961;28;20144;-76
2023/03/19 09:33:06;;;;;;;6.72;2.42;;;19.40;99.90;;;;;;5053163;28;20021;-76
2023/03/19 09:35:33;;;;;;;13.00;2.60;;;19.40;99.90;;;;;;5052692;28;20074;-76
2023/03/19 09:38:00;;;;;;;8.50;2.20;;;19.30;99.90;;;;;;5052762;28;20052;-76
2023/03/19 09:40:37;;;;;;;9.88;2.92;;;18.80;99.90;;;;;;5052752;28;20036;-75
2023/03/19 09:43:40;;;;;;;8.45;2.60;;;18.60;99.90;;;;;;5052747;28;20043;-75
2023/03/19 09:46:20;;;;;;;8.05;2.80;;;18.90;99.90;;;;;;5052634;28;20045;-75
2023/03/19 09:48:53;;;;;;;10.55;2.90;;;18.50;99.90;;;;;;5052876;28;20053;-75
2023/03/19 09:51:29;;;;;;;11.88;3.05;;;18.40;99.90;;;;;;5052941;28;20362;-74
2023/03/19 09:54:07;;;;;;;7.60;2.38;;;18.60;99.90;;;;;;5054445;28;20021;-75
2023/03/19 09:56:34;;;;;;;10.52;2.50;;;18.70;99.90;;;;;;5052874;28;20121;-70
2023/03/19 09:59:00;;;;;;;13.85;3.10;;;18.00;99.90;;;;;;5052412;28;20024;-73
2023/03/19 10:01:35;;;;;;;7.78;2.25;;;17.70;99.90;;;;;;5052727;28;20484;-77
2023/03/19 10:04:59;;;;;;;12.85;2.70;;;17.80;99.90;;;;;;5052672;28;20461;-79
2023/03/19 10:08:19;;;;;;;6.35;2.55;;;17.70;99.90;;;;;;4990961;28;20026;-77
2023/03/19 10:10:49;;;;;;;9.63;2.50;;;18.30;99.90;;;;;;4971411;28;20050;-76
2023/03/19 10:13:38;;;;;;;13.90;2.40;;;18.50;99.90;;;;;;4971502;28;20122;-76
2023/03/19 10:16:11;;;;;;;14.07;2.50;;;18.60;99.90;;;;;;4969955;28;20069;-77
2023/03/19 10:18:41;;;;;;;9.90;2.40;;;18.40;99.90;;;;;;4969920;28;20109;-77
2023/03/19 10:21:17;;;;;;;5.93;2.40;;;18.40;99.90;;;;;;4971273;28;20450;-77
2023/03/19 10:24:11;;;;;;;5.88;2.70;;;18.40;99.90;;;;;;4954293;28;20058;-76
2023/03/19 10:26:37;;;;;;;7.32;3.20;;;18.50;99.90;;;;;;4967275;28;20397;-75
2023/03/19 10:29:10;;;;;;;5.47;2.22;;;18.80;99.90;;;;;;4970733;28;20053;-73
2023/03/19 10:31:47;;;;;;;9.50;2.83;;;18.90;99.90;;;;;;4970396;28;20035;-78
2023/03/19 10:34:33;;;;;;;8.77;2.60;;;18.70;99.90;;;;;;4953682;28;20129;-77
2023/03/19 10:37:04;;;;;;;7.22;2.25;;;18.60;99.90;;;;;;4971608;28;20050;-78
2023/03/19 10:39:34;;;;;;;10.57;2.58;;;18.60;99.90;;;;;;5008111;28;20192;-77
2023/03/19 10:42:17;;;;;;;9.57;2.40;;;18.40;99.90;;;;;;5009719;28;20026;-78
2023/03/19 10:45:00;;;;;;;7.82;2.22;;;18.30;99.90;;;;;;5036358;28;20182;-78
2023/03/19 10:47:26;;;;;;;7.75;2.50;;;18.80;99.90;;;;;;5051964;28;20021;-78
2023/03/19 10:49:56;;;;;;;4.43;2.20;;;18.70;99.90;;;;;;5048952;28;20059;-77
2023/03/19 10:52:35;;;;;;;8.52;2.92;;;18.60;99.90;;;;;;5045049;28;20025;-72
2023/03/19 10:55:15;;;;;;;7.32;2.47;;;18.80;99.90;;;;;;5047537;28;20112;-78
2023/03/19 10:57:44;;;;;;;7.63;2.45;;;18.10;99.90;;;;;;5031692;28;20041;-77
2023/03/19 11:00:23;;;;;;;6.68;2.58;;;17.70;99.90;;;;;;5026861;28;20381;-78
2023/03/19 11:02:55;;;;;;;12.88;3.03;;;17.80;99.90;;;;;;5051383;28;20033;-77
2023/03/19 11:05:33;;;;;;;7.07;2.45;;;17.50;99.90;;;;;;5050318;28;20052;-75
2023/03/19 11:08:17;;;;;;;7.75;2.50;;;17.00;99.90;;;;;;5051489;28;20096;-77
2023/03/19 11:10:48;;;;;;;6.93;2.47;;;17.60;99.90;;;;;;5051361;28;20029;-77
2023/03/19 11:13:26;;;;;;;7.90;2.65;;;17.90;99.90;;;;;;5051242;28;20040;-75
2023/03/19 11:15:56;;;;;;;7.15;2.72;;;18.20;99.90;;;;;;5055939;28;20133;-77
2023/03/19 11:18:38;;;;;;;10.63;2.92;;;17.80;99.90;;;;;;5051489;28;20025;-77
2023/03/19 11:21:31;;;;;;;7.25;2.70;;;17.50;99.90;;;;;;5051559;28;20033;-76
2023/03/19 11:24:02;;;;;;;9.27;2.65;;;18.00;99.90;;;;;;5033223;28;20017;-77
2023/03/19 11:26:29;;;;;;;9.07;3.00;;;18.10;99.90;;;;;;5051339;28;20522;-78
2023/03/19 11:29:00;;;;;;;;;;;18.40;99.90;;;;;;5051501;28;20075;-77
2023/03/19 11:31:38;;;;;;;12.05;2.58;;;18.40;99.90;;;;;;5051433;28;20482;-78
2023/03/19 11:34:29;;;;;;;7.00;2.78;;;18.40;99.90;;;;;;5029311;28;20053;-78
2023/03/19 11:37:06;;;;;;;7.93;2.80;;;18.40;99.90;;;;;;5032653;28;20036;-77
2023/03/19 11:39:56;;;;;;;7.45;2.38;;;18.60;99.90;;;;;;5035142;28;20052;-78
2023/03/19 11:42:41;;;;;;;9.20;2.70;;;18.60;99.90;;;;;;5035262;28;20041;-76
2023/03/19 11:45:39;;;;;;;9.23;3.35;;;18.80;99.90;;;;;;5035723;28;20060;-78
2023/03/19 11:48:48;;;;;;;10.23;2.63;;;18.70;99.90;;;;;;5035285;28;20532;-77
2023/03/19 11:51:26;;;;;;;6.57;2.60;;;18.60;99.90;;;;;;5035401;28;20037;-79
2023/03/19 11:54:18;;;;;;;7.30;2.70;;;18.70;99.90;;;;;;5035222;28;20482;-78
2023/03/19 11:56:58;;;;;;;6.88;2.55;;;18.80;99.90;;;;;;5035407;28;20029;-77
2023/03/19 11:59:27;;;;;;;5.32;2.20;;;18.70;99.90;;;;;;5034926;28;20021;-78
2023/03/19 12:02:37;;;;;;;6.38;2.45;;;18.60;99.90;;;;;;5033409;28;20037;-78
2023/03/19 12:05:25;;;;;;;5.60;2.13;;;18.60;99.90;;;;;;4993388;28;20030;-78
2023/03/19 12:08:18;;;;;;;8.55;2.60;;;18.60;99.90;;;;;;5032337;28;20041;-78
2023/03/19 12:11:09;;;;;;;7.38;2.60;;;18.70;99.90;;;;;;5033279;28;20436;-78
2023/03/19 12:13:45;;;;;;;7.43;2.40;;;18.90;99.90;;;;;;5034487;28;20032;-78
2023/03/19 12:16:17;;;;;;;9.25;2.80;;;18.70;99.90;;;;;;5034539;28;20026;-78
2023/03/19 12:18:49;;;;;;;8.38;2.90;;;18.50;99.90;;;;;;5033096;28;20022;-78
2023/03/19 12:21:28;;;;;;;4.82;2.40;;;18.80;99.90;;;;;;5034531;28;20083;-79
2023/03/19 12:24:10;;;;;;;8.25;2.85;;;18.80;99.90;;;;;;5033098;28;20032;-79
2023/03/19 12:26:47;;;;;;;6.15;2.47;;;18.70;99.90;;;;;;5034434;28;20110;-79
2023/03/19 12:29:44;;;;;;;6.57;2.53;;;18.60;99.90;;;;;;5034567;28;20017;-78
2023/03/19 12:32:41;;;;;;;6.93;2.65;;;18.60;99.90;;;;;;5034745;28;20064;-79
2023/03/19 12:35:17;;;;;;;6.47;2.30;;;18.60;99.90;;;;;;5049894;28;20044;-79
2023/03/19 12:38:16;;;;;;;11.65;2.90;;;18.60;99.90;;;;;;5054070;28;20086;-78
2023/03/19 12:41:02;;;;;;;6.53;2.88;;;18.00;99.90;;;;;;5025279;28;20029;-76
2023/03/19 12:43:48;;;;;;;10.40;3.40;;;18.10;99.90;;;;;;5054288;28;20028;-76
2023/03/19 12:46:40;;;;;;;7.63;2.60;;;18.20;99.90;;;;;;5036067;28;20385;-79
2023/03/19 12:49:18;;;;;;;7.50;1.77;;;18.40;99.90;;;;;;5049860;28;20457;-79
2023/03/19 12:51:56;;;;;;;7.85;2.10;;;18.20;99.90;;;;;;5054467;28;20029;-79
2023/03/19 12:54:42;;;;;;;7.70;2.00;;;18.00;99.90;;;;;;5054133;28;20051;-78
2023/03/19 12:57:23;;;;;;;6.10;1.95;;;17.70;99.90;;;;;;5054230;28;20035;-75
2023/03/19 12:59:52;;;;;;;9.07;2.42;;;17.80;99.90;;;;;;5053639;28;20124;-78
2023/03/19 13:02:40;;;;;;;6.32;2.10;;;17.70;99.90;;;;;;5054067;28;20104;-79